Cliff Island, Maine
Current Conditions -  °F | °C
As of 8:33 AM on Thursday 23 Oct 2014 (Local Time) from KPWM Reporting Station
Light Rain Light Rain  
Wind Chill: 51°   Ceiling: 1200
Heat Index: 51°   Visibility: 2mi
Dew Point: 47°   Wind: 29mph
Humidity: 86%   Direction: 30°NNE
Pressure: 29.76"   Gusts: 36mph
Location:  43.7°N, 70.11°W
Report Text: KPWM 231233Z 03025G31KT 2SM -RA BR OVC012 11/08 A2976 RMK AO2 PK WND 01034/1210 RAB1159 P0003 T01060083
Loading
Personal Weather Stations






























Interactive Weather Map
Tropical Storm Tracking
New forecast layout! Learn more

10-Day Weather Forecast

Advertisements
Track Severe Weather on mobile